Time;durP1;ratioP1;P1;durP2;ratioP2;P2;SDS_P1;SDS_P2;PMS_P1;PMS_P2;Temp;Humidity;BMP_temperature;BMP_pressure;BME280_temperature;BME280_humidity;BME280_pressure;Samples;Min_cycle;Max_cycle;Signal;HPM_P1;HPM_P2
2021/09/15 00:00:11;;;;;;;2.85;2.65;;;15.30;99.90;;;;;;6121357;23;20394;-90
2021/09/15 00:02:59;;;;;;;2.95;2.75;;;15.30;99.90;;;;;;6124371;23;20470;-90
2021/09/15 00:05:43;;;;;;;2.72;2.53;;;15.20;99.90;;;;;;6099119;23;20394;-89
2021/09/15 00:08:28;;;;;;;2.88;2.67;;;15.20;99.90;;;;;;6100985;23;20366;-90
2021/09/15 00:11:13;;;;;;;2.50;2.30;;;15.20;99.90;;;;;;6101896;23;20425;-90
2021/09/15 00:13:57;;;;;;;3.63;3.03;;;15.20;99.90;;;;;;6101938;23;20383;-87
2021/09/15 00:16:42;;;;;;;2.80;2.60;;;15.20;99.90;;;;;;6144000;23;20373;-90
2021/09/15 00:19:26;;;;;;;3.00;2.80;;;15.10;99.90;;;;;;6107005;23;20374;-90
2021/09/15 00:22:11;;;;;;;3.22;3.03;;;15.10;99.90;;;;;;6128623;23;20366;-91
2021/09/15 00:24:55;;;;;;;2.92;2.72;;;15.00;99.90;;;;;;6108474;23;20743;-92
2021/09/15 00:27:40;;;;;;;3.83;3.13;;;15.00;99.90;;;;;;6105660;23;20402;-90
2021/09/15 00:30:25;;;;;;;2.65;2.45;;;15.00;99.90;;;;;;6125044;23;20552;-89
2021/09/15 00:33:09;;;;;;;3.10;2.80;;;15.00;99.90;;;;;;6126015;23;20709;-88
2021/09/15 00:35:53;;;;;;;3.57;3.27;;;15.00;99.90;;;;;;6108570;23;20362;-92
2021/09/15 00:38:37;;;;;;;2.70;2.50;;;15.00;99.90;;;;;;6129422;23;20483;-91
2021/09/15 00:41:22;;;;;;;2.63;2.42;;;15.00;99.90;;;;;;6107539;23;20394;-91
2021/09/15 00:44:08;;;;;;;3.47;3.17;;;14.90;99.90;;;;;;6109440;23;20362;-91
2021/09/15 00:46:54;;;;;;;3.13;2.90;;;14.90;99.90;;;;;;6109581;23;20378;-91
2021/09/15 00:49:38;;;;;;;3.25;3.03;;;14.90;99.90;;;;;;6105898;23;20385;-92
2021/09/15 00:52:23;;;;;;;3.13;2.83;;;14.90;99.90;;;;;;6106980;23;20374;-90
2021/09/15 00:55:08;;;;;;;2.88;2.67;;;14.90;99.90;;;;;;6143114;23;20398;-91
2021/09/15 00:57:56;;;;;;;2.97;2.78;;;14.90;99.90;;;;;;6127719;23;20366;-90
2021/09/15 01:00:41;;;;;;;2.55;2.35;;;14.80;99.90;;;;;;6106674;23;20395;-91
2021/09/15 01:03:25;;;;;;;3.03;2.83;;;14.80;99.90;;;;;;6106388;23;20385;-91
2021/09/15 01:06:10;;;;;;;3.10;2.80;;;15.00;99.90;;;;;;6108030;23;20419;-91
2021/09/15 01:08:58;;;;;;;2.92;2.72;;;14.80;99.90;;;;;;6150508;23;20394;-91
2021/09/15 01:11:43;;;;;;;3.58;3.28;;;14.80;99.90;;;;;;6108304;23;20402;-90
2021/09/15 01:14:48;;;;;;;3.75;3.35;;;14.70;99.90;;;;;;6116037;23;20414;-92
2021/09/15 01:17:58;;;;;;;4.25;3.50;;;14.60;99.90;;;;;;6123947;23;20370;-94
2021/09/15 01:21:07;;;;;;;3.00;2.80;;;14.70;99.90;;;;;;6108616;23;20414;-92
2021/09/15 01:24:10;;;;;;;3.28;2.95;;;14.60;99.90;;;;;;6120554;23;20391;-90
2021/09/15 01:27:03;;;;;;;3.40;3.10;;;14.60;99.90;;;;;;6132480;23;20424;-89
2021/09/15 01:29:58;;;;;;;4.43;4.03;;;14.60;99.90;;;;;;6112361;23;20440;-93
2021/09/15 01:32:46;;;;;;;3.07;2.87;;;14.60;99.90;;;;;;6109003;23;20370;-90
2021/09/15 01:35:31;;;;;;;3.17;2.97;;;14.50;99.90;;;;;;6104358;23;20414;-91
2021/09/15 01:38:15;;;;;;;3.20;3.00;;;14.50;99.90;;;;;;6125328;23;20394;-89
2021/09/15 01:41:01;;;;;;;3.28;2.90;;;14.50;99.90;;;;;;6106068;23;20455;-91
2021/09/15 01:43:50;;;;;;;3.45;3.15;;;14.50;99.90;;;;;;6146718;23;20406;-90
2021/09/15 01:46:35;;;;;;;3.53;3.22;;;14.40;99.90;;;;;;6127813;23;20390;-90
2021/09/15 01:49:19;;;;;;;3.03;2.83;;;14.50;99.90;;;;;;6108165;23;20408;-91
2021/09/15 01:52:04;;;;;;;3.10;2.85;;;14.40;99.90;;;;;;6105046;23;20644;-88
2021/09/15 01:54:49;;;;;;;3.08;2.83;;;14.40;99.90;;;;;;6125740;23;20390;-89
2021/09/15 01:57:33;;;;;;;3.53;2.88;;;14.40;99.90;;;;;;6107070;23;20366;-92
2021/09/15 02:00:54;;;;;;;3.30;3.00;;;14.40;99.90;;;;;;6053541;23;20434;-90
2021/09/15 02:03:58;;;;;;;3.05;2.85;;;14.40;99.90;;;;;;6134184;23;20402;-91
2021/09/15 02:07:17;;;;;;;3.38;3.13;;;14.40;99.90;;;;;;6122529;23;20371;-92
2021/09/15 02:10:23;;;;;;;3.25;2.88;;;14.40;99.90;;;;;;6135223;23;20387;-91
2021/09/15 02:13:07;;;;;;;2.90;2.60;;;14.30;99.90;;;;;;6126579;23;20430;-90
2021/09/15 02:15:54;;;;;;;2.63;2.42;;;14.30;99.90;;;;;;6108373;23;20374;-92
2021/09/15 02:18:38;;;;;;;3.15;2.85;;;14.40;99.90;;;;;;6107172;23;20358;-90
2021/09/15 02:21:46;;;;;;;3.03;2.83;;;14.20;99.90;;;;;;6106621;23;20393;-92
2021/09/15 02:24:56;;;;;;;2.97;2.67;;;14.20;99.90;;;;;;6138563;23;20358;-91
2021/09/15 02:27:53;;;;;;;3.47;3.17;;;14.20;99.90;;;;;;6113362;23;20378;-91
2021/09/15 02:30:49;;;;;;;3.00;2.80;;;14.20;99.90;;;;;;6099254;23;20399;-90
2021/09/15 02:33:50;;;;;;;3.60;3.28;;;14.10;99.90;;;;;;6114475;23;20443;-93
2021/09/15 02:36:40;;;;;;;2.40;2.20;;;14.00;99.90;;;;;;6110420;23;20358;-92
2021/09/15 02:39:37;;;;;;;2.90;2.70;;;14.10;99.90;;;;;;6096756;23;20378;-93
2021/09/15 02:42:41;;;;;;;3.08;2.88;;;14.00;99.90;;;;;;6099558;23;20464;-92
2021/09/15 02:45:29;;;;;;;3.30;3.00;;;14.00;99.90;;;;;;6109034;23;20350;-92
2021/09/15 02:48:26;;;;;;;4.20;3.90;;;14.00;99.90;;;;;;6113236;23;20389;-92
2021/09/15 02:51:23;;;;;;;3.47;3.17;;;14.00;99.90;;;;;;6112670;23;20374;-90
2021/09/15 02:54:22;;;;;;;4.40;3.60;;;13.90;99.90;;;;;;6112881;23;20366;-89
2021/09/15 02:57:21;;;;;;;3.88;3.58;;;13.90;99.90;;;;;;6113511;23;20374;-90
2021/09/15 03:00:09;;;;;;;3.55;3.25;;;13.90;99.90;;;;;;6108114;23;20378;-90
2021/09/15 03:03:02;;;;;;;4.50;4.10;;;13.90;99.90;;;;;;6132265;23;20386;-90
2021/09/15 03:06:07;;;;;;;3.83;3.53;;;13.80;99.90;;;;;;6131275;23;20362;-90
2021/09/15 03:09:10;;;;;;;3.35;3.10;;;13.90;99.90;;;;;;6136744;23;20382;-91
2021/09/15 03:11:55;;;;;;;3.88;3.53;;;13.80;99.90;;;;;;6107489;23;20366;-88
2021/09/15 03:14:42;;;;;;;3.28;3.08;;;13.80;99.90;;;;;;6108148;23;20389;-91
2021/09/15 03:17:27;;;;;;;3.42;3.10;;;13.80;99.90;;;;;;6130200;23;20427;-92
2021/09/15 03:20:12;;;;;;;3.30;3.00;;;13.80;99.90;;;;;;6131225;23;20393;-90
2021/09/15 03:22:57;;;;;;;3.50;3.20;;;13.80;99.90;;;;;;6110865;23;20358;-91
2021/09/15 03:25:44;;;;;;;3.38;3.08;;;13.80;99.90;;;;;;6110287;23;20405;-91
2021/09/15 03:28:29;;;;;;;3.63;3.33;;;13.80;99.90;;;;;;6111231;23;20386;-90
2021/09/15 03:31:17;;;;;;;3.85;3.55;;;13.70;99.90;;;;;;6110450;23;20423;-91
2021/09/15 03:34:02;;;;;;;4.55;4.15;;;13.70;99.90;;;;;;6110096;23;20406;-89
2021/09/15 03:36:47;;;;;;;3.63;3.25;;;13.70;99.90;;;;;;6109941;23;20401;-92
2021/09/15 03:39:32;;;;;;;3.35;3.15;;;13.70;99.90;;;;;;6111304;23;20366;-90
2021/09/15 03:42:16;;;;;;;3.35;3.13;;;13.90;99.90;;;;;;6111913;23;20374;-92
2021/09/15 03:45:00;;;;;;;3.65;3.35;;;13.80;99.90;;;;;;6109631;23;20422;-89
2021/09/15 03:47:45;;;;;;;3.90;3.60;;;13.70;99.90;;;;;;6109973;23;20370;-89
2021/09/15 03:50:30;;;;;;;3.47;3.20;;;13.70;99.90;;;;;;6097393;23;20382;-91
2021/09/15 03:53:15;;;;;;;3.92;3.63;;;13.70;99.90;;;;;;6091993;23;20427;-90
2021/09/15 03:56:38;;;;;;;4.28;3.88;;;13.70;99.90;;;;;;6060097;23;20570;-91
2021/09/15 04:03:58;;;;;;;3.65;3.35;;;13.70;99.90;;;;;;6073199;23;20398;-92
2021/09/15 04:06:45;;;;;;;3.58;3.28;;;13.80;99.90;;;;;;6069774;23;20366;-90
2021/09/15 04:09:31;;;;;;;3.08;2.88;;;13.80;99.90;;;;;;6099204;23;20411;-89
2021/09/15 04:12:16;;;;;;;4.43;3.70;;;13.80;99.90;;;;;;6132243;23;20374;-91
2021/09/15 04:15:01;;;;;;;3.50;3.20;;;13.80;99.90;;;;;;6131862;23;20453;-90
2021/09/15 04:17:45;;;;;;;4.30;3.95;;;13.80;99.90;;;;;;6111952;23;20414;-91
2021/09/15 04:20:32;;;;;;;4.07;3.70;;;13.80;99.90;;;;;;6091202;23;20402;-90
2021/09/15 04:23:21;;;;;;;4.55;3.70;;;13.80;99.90;;;;;;6165864;22;20385;-87
2021/09/15 04:32:11;;;;;;;4.10;3.70;;;13.80;99.90;;;;;;6209636;23;20378;-84
2021/09/15 04:34:56;;;;;;;4.03;3.55;;;13.80;99.90;;;;;;6206020;23;20365;-85
2021/09/15 04:37:40;;;;;;;4.55;4.10;;;13.80;99.90;;;;;;6231756;23;20407;-89
2021/09/15 04:40:24;;;;;;;3.88;3.58;;;13.90;99.90;;;;;;6188378;23;20374;-90
2021/09/15 04:43:09;;;;;;;4.20;3.80;;;13.90;99.90;;;;;;6212300;23;20443;-87
2021/09/15 04:45:54;;;;;;;4.10;3.75;;;13.90;99.90;;;;;;6185724;23;20799;-89
2021/09/15 04:48:39;;;;;;;3.40;3.10;;;13.90;99.90;;;;;;6185972;23;20378;-92
2021/09/15 04:51:23;;;;;;;3.40;3.20;;;13.90;99.90;;;;;;6203939;23;20446;-90
2021/09/15 04:54:09;;;;;;;3.97;3.67;;;14.00;99.90;;;;;;6204320;23;20379;-90
2021/09/15 04:56:56;;;;;;;4.93;3.90;;;14.00;99.90;;;;;;6184660;23;20448;-87
2021/09/15 04:59:43;;;;;;;3.70;3.45;;;14.00;99.90;;;;;;6203330;23;20674;-93
2021/09/15 05:02:27;;;;;;;4.00;3.55;;;14.00;99.90;;;;;;6204417;23;20449;-90
2021/09/15 05:05:14;;;;;;;4.03;3.60;;;14.00;99.90;;;;;;6184357;23;20859;-89
2021/09/15 05:08:03;;;;;;;4.47;3.80;;;14.10;99.90;;;;;;6202633;23;20394;-87
2021/09/15 05:10:49;;;;;;;4.53;3.92;;;14.10;99.90;;;;;;6204314;23;20383;-88
2021/09/15 05:13:36;;;;;;;3.33;3.03;;;14.10;99.90;;;;;;6206443;23;20390;-87
2021/09/15 05:16:21;;;;;;;3.85;3.47;;;14.10;99.90;;;;;;6204818;23;20363;-91
2021/09/15 05:19:05;;;;;;;3.75;3.45;;;14.20;99.90;;;;;;6205322;23;20371;-88
2021/09/15 05:21:50;;;;;;;4.18;3.80;;;14.20;99.90;;;;;;6231328;23;20373;-90
2021/09/15 05:24:34;;;;;;;6.10;4.63;;;14.20;99.90;;;;;;6189868;23;20565;-90
2021/09/15 05:27:19;;;;;;;6.20;4.35;;;14.30;99.90;;;;;;6212700;23;20405;-90
2021/09/15 05:30:04;;;;;;;4.70;3.88;;;14.30;99.90;;;;;;6209602;23;20378;-90
2021/09/15 05:32:49;;;;;;;5.05;4.55;;;14.40;99.90;;;;;;6190365;23;20398;-89
2021/09/15 05:35:34;;;;;;;4.45;4.00;;;14.50;99.90;;;;;;6190281;23;20436;-91
2021/09/15 05:38:22;;;;;;;4.53;4.23;;;14.60;99.90;;;;;;6212608;22;20429;-90
2021/09/15 05:41:26;;;;;;;4.40;4.10;;;14.60;99.90;;;;;;6216384;23;20422;-90
2021/09/15 05:44:11;;;;;;;4.10;3.80;;;14.80;99.90;;;;;;6171342;23;20469;-90
2021/09/15 05:46:56;;;;;;;4.13;3.83;;;14.80;99.90;;;;;;6212731;23;20435;-90
2021/09/15 05:49:42;;;;;;;3.93;3.50;;;15.10;99.90;;;;;;6191417;23;20406;-91
2021/09/15 05:52:26;;;;;;;3.90;3.60;;;15.10;99.90;;;;;;6212758;23;20370;-91
2021/09/15 05:55:11;;;;;;;4.00;3.70;;;15.20;99.90;;;;;;6211266;23;20447;-92
2021/09/15 05:57:56;;;;;;;3.95;3.65;;;15.30;99.90;;;;;;6212270;23;20427;-93
2021/09/15 06:00:40;;;;;;;4.15;3.75;;;15.40;99.90;;;;;;6211653;23;20369;-92
2021/09/15 06:03:30;;;;;;;4.03;3.72;;;15.50;99.90;;;;;;6213150;23;20409;-91
2021/09/15 06:06:29;;;;;;;4.28;3.92;;;15.70;99.90;;;;;;6215148;23;20398;-92
2021/09/15 06:09:14;;;;;;;5.00;4.10;;;15.90;99.90;;;;;;6212352;23;20378;-92
2021/09/15 06:12:00;;;;;;;4.22;3.83;;;15.80;99.90;;;;;;6212410;23;20363;-90
2021/09/15 06:14:46;;;;;;;3.53;3.23;;;15.90;99.90;;;;;;6212234;23;20401;-92
2021/09/15 06:17:31;;;;;;;3.40;3.10;;;16.10;99.90;;;;;;6211902;23;20383;-92
2021/09/15 06:20:15;;;;;;;4.18;3.78;;;16.20;99.90;;;;;;6190953;23;20350;-94
2021/09/15 06:23:19;;;;;;;4.30;3.90;;;16.30;99.90;;;;;;6233220;23;20355;-90
2021/09/15 06:26:14;;;;;;;4.38;3.95;;;16.40;99.90;;;;;;6212898;23;20504;-91
2021/09/15 06:28:58;;;;;;;3.85;3.55;;;16.50;99.90;;;;;;6188919;22;20363;-92
2021/09/15 06:31:42;;;;;;;3.03;2.83;;;16.60;99.90;;;;;;6209214;23;20387;-92
2021/09/15 06:34:28;;;;;;;3.30;3.00;;;16.70;99.90;;;;;;6191097;23;20398;-93
2021/09/15 06:37:14;;;;;;;3.30;3.07;;;16.70;99.90;;;;;;6211690;23;20451;-91
2021/09/15 06:39:58;;;;;;;4.03;3.28;;;16.80;99.90;;;;;;6210228;23;20386;-91
2021/09/15 06:42:43;;;;;;;3.40;3.10;;;16.90;99.90;;;;;;6191253;23;20367;-92
2021/09/15 06:45:27;;;;;;;4.38;3.83;;;17.00;99.90;;;;;;6189395;23;20351;-92
2021/09/15 06:48:13;;;;;;;4.17;3.33;;;17.00;99.90;;;;;;6211567;23;20386;-92
2021/09/15 06:50:58;;;;;;;3.35;3.05;;;17.10;99.90;;;;;;6190181;23;20415;-92
2021/09/15 06:53:43;;;;;;;10.47;5.80;;;17.30;99.90;;;;;;6171886;22;20391;-91
2021/09/15 06:56:28;;;;;;;10.00;5.67;;;17.40;99.90;;;;;;6213648;23;20359;-92
2021/09/15 06:59:14;;;;;;;7.72;4.15;;;17.50;99.90;;;;;;6192189;22;20362;-92
2021/09/15 07:01:59;;;;;;;6.43;4.32;;;17.60;99.90;;;;;;6211651;23;20363;-94
2021/09/15 07:04:43;;;;;;;28.95;10.05;;;17.80;99.90;;;;;;6190883;23;20383;-92
2021/09/15 07:07:28;;;;;;;24.83;9.00;;;17.70;99.90;;;;;;6193631;23;20370;-91
2021/09/15 07:10:12;;;;;;;14.77;7.10;;;17.70;99.90;;;;;;6213788;23;20557;-91
2021/09/15 07:12:57;;;;;;;9.27;4.97;;;17.80;99.90;;;;;;6192505;23;20430;-93
2021/09/15 07:15:41;;;;;;;3.53;3.15;;;17.80;99.90;;;;;;6213344;23;20378;-93
2021/09/15 07:18:27;;;;;;;3.42;3.20;;;17.90;99.90;;;;;;6212590;23;20366;-92
2021/09/15 07:21:13;;;;;;;4.00;3.67;;;18.00;99.90;;;;;;6214297;23;20443;-93
2021/09/15 07:23:57;;;;;;;3.17;2.97;;;18.10;99.90;;;;;;6214610;23;20410;-94
2021/09/15 07:26:42;;;;;;;3.45;3.17;;;18.20;99.90;;;;;;6211182;23;20387;-93
2021/09/15 07:29:26;;;;;;;2.90;2.70;;;18.30;99.90;;;;;;6212752;23;20382;-91
2021/09/15 07:32:10;;;;;;;3.50;3.20;;;18.60;99.90;;;;;;6213707;23;20443;-91
2021/09/15 07:34:55;;;;;;;3.63;3.33;;;18.70;99.90;;;;;;6212826;23;20370;-94
2021/09/15 07:37:39;;;;;;;2.90;2.70;;;18.70;99.90;;;;;;6212774;23;20366;-92
2021/09/15 07:58:41;;;;;;;3.72;3.20;;;19.80;99.90;;;;;;6261151;22;20378;-93
2021/09/15 08:01:25;;;;;;;4.20;3.55;;;20.10;99.90;;;;;;6168489;22;20354;-93
2021/09/15 08:04:09;;;;;;;4.95;3.70;;;20.40;99.90;;;;;;6172436;22;20387;-92
2021/09/15 08:06:54;;;;;;;5.80;4.60;;;20.50;99.90;;;;;;6152482;22;20400;-93
2021/09/15 08:09:38;;;;;;;6.75;4.18;;;20.70;99.90;;;;;;6169480;22;20363;-93
2021/09/15 08:12:23;;;;;;;9.93;5.87;;;20.90;99.90;;;;;;6172802;22;20382;-93
2021/09/15 08:15:08;;;;;;;5.72;4.15;;;21.00;99.90;;;;;;6151136;22;20382;-93
2021/09/15 08:17:53;;;;;;;3.63;3.08;;;21.00;99.90;;;;;;6173050;22;20370;-92
2021/09/15 08:20:38;;;;;;;2.88;2.65;;;21.00;99.90;;;;;;6171939;22;20359;-93
2021/09/15 08:23:25;;;;;;;2.95;2.75;;;21.10;99.90;;;;;;6141565;22;20444;-92
2021/09/15 08:26:09;;;;;;;4.25;2.83;;;21.10;99.90;;;;;;6172707;22;20429;-92
2021/09/15 08:28:54;;;;;;;3.20;2.90;;;21.20;99.90;;;;;;6173859;22;20369;-92
2021/09/15 08:31:39;;;;;;;3.63;3.33;;;21.30;99.90;;;;;;6171924;22;20378;-92
2021/09/15 08:34:23;;;;;;;2.97;2.78;;;21.40;99.90;;;;;;6172451;22;20386;-93
2021/09/15 08:37:08;;;;;;;3.00;2.80;;;21.60;99.90;;;;;;6172131;22;20434;-92
2021/09/15 08:39:52;;;;;;;3.22;2.92;;;21.70;99.90;;;;;;6173162;22;20370;-93
2021/09/15 08:42:37;;;;;;;2.70;2.50;;;21.90;99.90;;;;;;6172793;22;20357;-93
2021/09/15 08:45:24;;;;;;;3.35;3.10;;;22.10;99.90;;;;;;6169958;22;20427;-94
2021/09/15 08:48:08;;;;;;;3.10;2.85;;;22.10;99.90;;;;;;6172474;22;20367;-91
2021/09/15 08:50:52;;;;;;;3.17;2.88;;;22.20;99.90;;;;;;6170964;22;20354;-93
2021/09/15 08:53:37;;;;;;;2.78;2.58;;;22.40;99.90;;;;;;6149773;22;20443;-93
2021/09/15 08:56:22;;;;;;;4.20;2.85;;;22.50;99.90;;;;;;6171162;22;20414;-93
2021/09/15 08:59:06;;;;;;;2.60;2.40;;;22.60;99.90;;;;;;6145291;23;20449;-92
2021/09/15 09:02:06;;;;;;;3.47;2.72;;;22.70;99.90;;;;;;6121531;23;20415;-93
2021/09/15 09:04:55;;;;;;;3.57;2.50;;;22.70;99.90;;;;;;6162750;23;20617;-93
2021/09/15 09:07:39;;;;;;;2.67;2.47;;;23.00;99.90;;;;;;6142300;23;20456;-92
2021/09/15 09:10:24;;;;;;;2.83;2.63;;;23.00;99.90;;;;;;6122279;23;20372;-92
2021/09/15 09:13:17;;;;;;;2.42;2.33;;;23.10;99.90;;;;;;6120650;23;20361;-91
2021/09/15 09:16:02;;;;;;;3.13;2.50;;;23.20;99.90;;;;;;6141944;23;20424;-94
2021/09/15 09:18:59;;;;;;;3.55;2.55;;;23.40;99.90;;;;;;6122677;23;20361;-92
2021/09/15 09:21:48;;;;;;;3.08;2.55;;;23.60;99.90;;;;;;6140990;23;20360;-93
2021/09/15 09:24:33;;;;;;;2.75;2.47;;;23.80;99.90;;;;;;6100125;23;20410;-91
2021/09/15 09:27:19;;;;;;;2.47;2.28;;;23.90;99.90;;;;;;6142059;23;20361;-92
2021/09/15 09:30:28;;;;;;;2.63;2.42;;;23.90;99.90;;;;;;6142880;23;20387;-93
2021/09/15 09:33:13;;;;;;;3.90;2.55;;;24.10;99.90;;;;;;6125474;23;20494;-92
2021/09/15 09:36:09;;;;;;;8.73;2.80;;;24.30;99.90;;;;;;6141394;23;20439;-92
2021/09/15 09:38:54;;;;;;;2.90;2.60;;;24.40;99.90;;;;;;6122568;23;20369;-94
2021/09/15 09:41:41;;;;;;;2.88;2.67;;;24.60;99.90;;;;;;6121997;23;20385;-93
2021/09/15 09:44:27;;;;;;;2.60;2.40;;;24.60;99.90;;;;;;6121232;23;20474;-91
2021/09/15 09:47:19;;;;;;;2.70;2.50;;;24.80;99.90;;;;;;6121215;23;20429;-92
2021/09/15 09:50:18;;;;;;;2.40;2.20;;;24.90;99.90;;;;;;6138201;23;20404;-91
2021/09/15 09:53:08;;;;;;;2.70;2.50;;;24.90;99.90;;;;;;6102393;23;20397;-92
2021/09/15 09:55:58;;;;;;;2.30;2.10;;;24.90;99.90;;;;;;6139001;23;20400;-91
2021/09/15 09:58:47;;;;;;;2.25;2.10;;;24.90;99.90;;;;;;6120910;23;20436;-91
2021/09/15 10:01:36;;;;;;;2.22;2.03;;;25.00;99.90;;;;;;6179885;23;20384;-93
2021/09/15 10:04:23;;;;;;;2.22;2.13;;;25.20;99.90;;;;;;6158963;23;20384;-91
2021/09/15 10:07:10;;;;;;;2.60;2.40;;;25.40;99.90;;;;;;6167378;23;20385;-91
2021/09/15 10:09:55;;;;;;;2.55;2.35;;;25.40;99.90;;;;;;6160227;23;20396;-92
2021/09/15 10:12:45;;;;;;;1.98;1.77;;;25.30;99.90;;;;;;6159650;23;20433;-92
2021/09/15 10:15:31;;;;;;;2.20;2.00;;;25.40;99.90;;;;;;6180641;23;20396;-90
2021/09/15 10:18:28;;;;;;;1.70;1.60;;;25.50;99.90;;;;;;6161882;23;20380;-92
2021/09/15 10:21:15;;;;;;;2.00;1.90;;;25.60;99.90;;;;;;6160376;23;20384;-91
2021/09/15 10:24:04;;;;;;;2.60;2.40;;;25.70;99.90;;;;;;6179086;23;20428;-90
2021/09/15 10:27:00;;;;;;;2.50;2.03;;;25.70;99.90;;;;;;6161055;23;20582;-91
2021/09/15 10:30:17;;;;;;;2.35;2.15;;;25.70;99.90;;;;;;6179275;23;20363;-91
2021/09/15 10:33:03;;;;;;;2.10;1.90;;;25.80;99.90;;;;;;6180344;23;20380;-92
2021/09/15 10:35:50;;;;;;;1.83;1.73;;;25.90;99.90;;;;;;6160464;23;20444;-93
2021/09/15 10:38:55;;;;;;;2.17;2.00;;;26.00;99.90;;;;;;6182528;23;20399;-90
2021/09/15 10:41:46;;;;;;;2.27;2.07;;;26.20;99.90;;;;;;6175124;23;20375;-91
2021/09/15 11:09:03;;;;;;;2.17;2.08;;;27.50;99.90;;;;;;6258773;22;20854;-90
2021/09/15 12:13:37;;;;;;;1.77;1.67;;;29.20;99.90;;;;;;6206253;22;20365;-88
2021/09/15 13:07:16;;;;;;;7.28;2.15;;;27.80;99.90;;;;;;6235813;22;20395;-90
2021/09/15 13:10:06;;;;;;;1.63;1.52;;;27.70;99.90;;;;;;6187750;22;20367;-90
2021/09/15 13:12:52;;;;;;;1.70;1.60;;;27.50;99.90;;;;;;6191788;23;20428;-90
2021/09/15 13:15:38;;;;;;;2.13;1.92;;;27.40;99.90;;;;;;6167715;23;20435;-92
2021/09/15 13:18:22;;;;;;;2.00;1.88;;;26.80;99.90;;;;;;6145659;23;20386;-91
2021/09/15 13:21:07;;;;;;;1.80;1.70;;;26.40;99.90;;;;;;6145152;23;20463;-90
2021/09/15 13:23:51;;;;;;;1.60;1.50;;;26.20;99.90;;;;;;6165633;23;20540;-90
2021/09/15 13:26:35;;;;;;;1.50;1.40;;;26.10;99.90;;;;;;6164503;23;20402;-88
2021/09/15 13:29:20;;;;;;;1.60;1.40;;;25.90;99.90;;;;;;6142550;23;20394;-90
2021/09/15 13:32:08;;;;;;;1.95;1.85;;;25.70;99.90;;;;;;6182881;23;20467;-89
2021/09/15 13:34:53;;;;;;;1.50;1.40;;;25.50;99.90;;;;;;6142720;23;20424;-90
2021/09/15 13:37:37;;;;;;;1.60;1.50;;;25.30;99.90;;;;;;6184098;23;20626;-91
2021/09/15 13:40:22;;;;;;;1.65;1.55;;;25.20;99.90;;;;;;6162537;23;20394;-88
2021/09/15 13:43:06;;;;;;;1.80;1.70;;;25.30;99.90;;;;;;6163639;23;20371;-91
2021/09/15 13:45:51;;;;;;;1.85;1.75;;;25.20;99.90;;;;;;6142514;23;20371;-89
2021/09/15 13:48:35;;;;;;;1.95;1.85;;;25.20;99.90;;;;;;6143786;23;20414;-92
2021/09/15 13:51:19;;;;;;;1.90;1.80;;;25.10;99.90;;;;;;6141496;23;20398;-90
2021/09/15 13:54:04;;;;;;;1.75;1.30;;;25.00;99.90;;;;;;6204630;23;20447;-90
2021/09/15 13:56:48;;;;;;;1.60;1.50;;;25.00;99.90;;;;;;6186069;23;20354;-92
2021/09/15 13:59:32;;;;;;;2.03;1.73;;;25.00;99.90;;;;;;6141631;23;20362;-89
2021/09/15 14:02:16;;;;;;;1.60;1.40;;;24.90;99.90;;;;;;6186088;23;20371;-92
2021/09/15 14:05:04;;;;;;;1.40;1.30;;;24.90;99.90;;;;;;6163302;23;20390;-91
2021/09/15 14:07:50;;;;;;;1.42;1.33;;;24.80;99.90;;;;;;6143876;23;20438;-89
2021/09/15 14:10:34;;;;;;;1.40;1.30;;;24.80;99.90;;;;;;6183007;23;20358;-90
2021/09/15 14:13:19;;;;;;;1.08;1.08;;;24.80;99.90;;;;;;6163746;23;20407;-90
2021/09/15 14:16:03;;;;;;;1.48;1.38;;;24.80;99.90;;;;;;6141975;23;20371;-91
2021/09/15 14:18:48;;;;;;;1.40;1.30;;;24.80;99.90;;;;;;6163143;23;20363;-90
2021/09/15 14:21:32;;;;;;;1.90;1.80;;;24.60;99.90;;;;;;6141089;23;20370;-89
2021/09/15 14:24:17;;;;;;;2.60;2.40;;;24.50;99.90;;;;;;6163723;23;20367;-89
2021/09/15 14:27:01;;;;;;;2.58;2.38;;;24.10;99.90;;;;;;6141571;23;20387;-90
2021/09/15 14:29:46;;;;;;;2.20;2.00;;;23.70;99.90;;;;;;6159547;23;20379;-86
2021/09/15 14:32:30;;;;;;;1.75;1.65;;;23.70;99.90;;;;;;6138181;23;20371;-91
2021/09/15 14:35:14;;;;;;;1.57;1.47;;;23.70;99.90;;;;;;6136958;23;20383;-85
2021/09/15 14:37:59;;;;;;;2.00;1.77;;;23.60;99.90;;;;;;6178182;23;20386;-87
2021/09/15 14:40:43;;;;;;;1.98;1.77;;;23.70;99.90;;;;;;6137831;23;20789;-90
2021/09/15 14:43:28;;;;;;;1.90;1.80;;;23.60;99.90;;;;;;6138710;23;20387;-91
2021/09/15 14:46:13;;;;;;;1.75;1.65;;;23.50;99.90;;;;;;6179587;23;20417;-87
2021/09/15 14:48:57;;;;;;;1.90;1.80;;;23.40;99.90;;;;;;6140023;23;20362;-89
2021/09/15 14:51:42;;;;;;;2.22;1.83;;;23.20;99.90;;;;;;6138769;23;20371;-90
2021/09/15 14:54:26;;;;;;;1.98;1.88;;;22.90;99.90;;;;;;6139045;23;20485;-89
2021/09/15 14:57:14;;;;;;;3.08;2.60;;;22.80;99.90;;;;;;6140197;23;20423;-88
2021/09/15 14:59:58;;;;;;;2.10;1.95;;;22.60;99.90;;;;;;6180757;23;20418;-88
2021/09/15 15:02:42;;;;;;;2.15;1.98;;;22.30;99.90;;;;;;6140438;23;20443;-89
2021/09/15 15:05:27;;;;;;;1.95;1.85;;;22.40;99.90;;;;;;6138565;23;20399;-88
2021/09/15 15:08:11;;;;;;;2.80;2.10;;;22.40;99.90;;;;;;6142726;23;20379;-92
2021/09/15 15:10:56;;;;;;;1.77;1.67;;;22.20;99.90;;;;;;6142185;23;20415;-88
2021/09/15 15:13:41;;;;;;;3.58;2.38;;;22.30;99.90;;;;;;6143286;23;20367;-91
2021/09/15 15:16:25;;;;;;;1.90;1.80;;;22.30;99.90;;;;;;6143673;23;20371;-90
2021/09/15 15:19:09;;;;;;;2.30;2.10;;;22.50;99.90;;;;;;6185174;23;20378;-89
2021/09/15 15:21:54;;;;;;;2.10;2.00;;;22.40;99.90;;;;;;6165107;23;20353;-88
2021/09/15 15:24:38;;;;;;;1.80;1.70;;;22.30;99.90;;;;;;6184717;23;20358;-91
2021/09/15 15:27:22;;;;;;;1.73;1.52;;;22.30;99.90;;;;;;6165273;23;20397;-93
2021/09/15 15:30:08;;;;;;;2.50;2.30;;;22.30;99.90;;;;;;6163719;23;20425;-88
2021/09/15 15:32:52;;;;;;;2.20;2.00;;;22.30;99.90;;;;;;6144933;23;20374;-91
2021/09/15 15:35:39;;;;;;;1.85;1.75;;;22.30;99.90;;;;;;6144297;23;20500;-91
2021/09/15 15:38:24;;;;;;;1.77;1.67;;;22.30;99.90;;;;;;6146211;23;20767;-88
2021/09/15 15:41:09;;;;;;;2.13;1.92;;;22.40;99.90;;;;;;6163970;23;20386;-92
2021/09/15 15:43:55;;;;;;;1.88;1.77;;;22.30;99.90;;;;;;6185419;23;20371;-89
2021/09/15 15:46:39;;;;;;;2.35;2.20;;;22.40;99.90;;;;;;6183597;23;20490;-89
2021/09/15 15:49:24;;;;;;;1.95;1.85;;;22.30;99.90;;;;;;6143084;23;20359;-89
2021/09/15 15:52:08;;;;;;;1.83;1.73;;;22.30;99.90;;;;;;6143158;23;20483;-89
2021/09/15 15:54:53;;;;;;;1.67;1.58;;;22.20;99.90;;;;;;6143172;23;20405;-90
2021/09/15 15:57:38;;;;;;;1.90;1.75;;;22.30;99.90;;;;;;6162406;23;20641;-89
2021/09/15 16:00:24;;;;;;;1.80;1.70;;;22.30;99.90;;;;;;6088548;23;20379;-89
2021/09/15 16:03:08;;;;;;;1.90;1.80;;;22.30;99.90;;;;;;6108419;23;20432;-92
2021/09/15 16:05:52;;;;;;;2.50;2.30;;;22.20;99.90;;;;;;6147510;23;20439;-92
2021/09/15 16:08:37;;;;;;;2.30;2.05;;;22.10;99.90;;;;;;6206289;23;20375;-93
2021/09/15 16:11:21;;;;;;;2.27;2.07;;;22.00;99.90;;;;;;6185103;23;20914;-89
2021/09/15 16:14:06;;;;;;;2.20;2.00;;;22.00;99.90;;;;;;6185399;23;20431;-88
2021/09/15 16:16:50;;;;;;;2.03;1.90;;;21.90;99.90;;;;;;6182698;23;20473;-88
2021/09/15 16:19:34;;;;;;;2.72;2.42;;;21.90;99.90;;;;;;6183276;23;20395;-90
2021/09/15 16:22:19;;;;;;;2.43;2.30;;;21.80;99.90;;;;;;6203574;23;20386;-87
2021/09/15 16:25:04;;;;;;;2.40;2.25;;;21.70;99.90;;;;;;6182382;23;20416;-86
2021/09/15 16:27:49;;;;;;;2.42;2.15;;;21.70;99.90;;;;;;6182990;23;20387;-83
2021/09/15 16:30:33;;;;;;;1.70;1.60;;;21.70;99.90;;;;;;6183808;23;20437;-84
2021/09/15 16:33:17;;;;;;;1.95;1.85;;;21.60;99.90;;;;;;6183046;23;20379;-89
2021/09/15 16:36:02;;;;;;;2.45;2.25;;;21.60;99.90;;;;;;6186354;23;20437;-87
2021/09/15 16:38:46;;;;;;;2.70;2.50;;;21.70;99.90;;;;;;6204285;23;20362;-89
2021/09/15 16:41:30;;;;;;;2.08;1.98;;;21.60;99.90;;;;;;6181647;23;20362;-89
2021/09/15 16:44:15;;;;;;;2.15;2.00;;;21.40;99.90;;;;;;6183417;23;20371;-88
2021/09/15 16:47:01;;;;;;;2.65;2.45;;;21.40;99.90;;;;;;6182205;23;20359;-87
2021/09/15 16:49:45;;;;;;;2.47;2.27;;;21.40;99.90;;;;;;6182469;23;20430;-85
2021/09/15 16:52:29;;;;;;;3.00;2.60;;;21.30;99.90;;;;;;6182339;23;20365;-86
2021/09/15 16:55:14;;;;;;;1.80;1.70;;;21.10;99.90;;;;;;6182042;23;21054;-89
2021/09/15 16:57:58;;;;;;;3.07;2.63;;;21.10;99.90;;;;;;6181492;23;20399;-88
2021/09/15 17:00:42;;;;;;;2.25;2.13;;;21.10;99.90;;;;;;6203458;23;20374;-87
2021/09/15 17:03:27;;;;;;;2.40;2.20;;;21.00;99.90;;;;;;6185075;23;20398;-89
2021/09/15 17:06:11;;;;;;;2.22;2.13;;;21.00;99.90;;;;;;6204051;23;20681;-83
2021/09/15 17:08:55;;;;;;;2.15;2.05;;;21.00;99.90;;;;;;6184402;23;20375;-89
2021/09/15 17:11:40;;;;;;;2.65;2.45;;;21.00;99.90;;;;;;6182969;23;20382;-90
2021/09/15 17:14:26;;;;;;;2.70;2.50;;;21.00;99.90;;;;;;6184256;23;20379;-90